createdAt,value
2022-10-03T00:00:13.731Z,40.90
2022-10-03T00:03:08.849Z,43.45
2022-10-03T00:05:53.220Z,43.00
2022-10-03T00:08:35.997Z,43.85
2022-10-03T00:11:12.716Z,42.40
2022-10-03T00:13:50.670Z,41.28
2022-10-03T00:16:24.926Z,41.90
2022-10-03T00:19:02.895Z,42.40
2022-10-03T00:21:45.962Z,43.28
2022-10-03T00:24:29.356Z,42.17
2022-10-03T00:27:04.602Z,45.83
2022-10-03T00:29:43.619Z,45.55
2022-10-03T00:32:27.604Z,47.83
2022-10-03T00:35:08.172Z,47.50
2022-10-03T00:40:50.505Z,49.40
2022-10-03T00:47:04.674Z,49.72
2022-10-03T00:50:08.746Z,51.90
2022-10-03T00:53:11.125Z,52.15
2022-10-03T00:55:54.355Z,51.10
2022-10-03T00:58:42.395Z,55.13
2022-10-03T01:01:25.733Z,54.90
2022-10-03T01:04:08.342Z,52.17
2022-10-03T01:06:45.108Z,50.17
2022-10-03T01:09:36.337Z,51.08
2022-10-03T01:12:29.403Z,50.45
2022-10-03T01:15:11.658Z,52.90
2022-10-03T01:17:50.557Z,52.42
2022-10-03T01:20:28.319Z,51.88
2022-10-03T01:26:48.991Z,53.15
2022-10-03T01:29:41.648Z,51.25
2022-10-03T01:35:12.135Z,49.67
2022-10-03T01:37:49.225Z,50.90
2022-10-03T01:40:27.377Z,50.33
2022-10-03T01:43:14.032Z,50.22
2022-10-03T01:45:56.607Z,48.42
2022-10-03T01:48:35.377Z,49.67
2022-10-03T01:51:11.751Z,48.00
2022-10-03T01:56:53.215Z,49.05
2022-10-03T01:59:25.976Z,44.55
2022-10-03T02:04:54.743Z,45.00
2022-10-03T02:07:29.825Z,44.75
2022-10-03T02:10:28.134Z,42.83
2022-10-03T02:13:06.401Z,45.00
2022-10-03T02:15:46.397Z,44.50
2022-10-03T02:18:24.797Z,43.72
2022-10-03T02:20:59.568Z,42.55
2022-10-03T02:23:41.168Z,44.42
2022-10-03T02:26:45.165Z,46.03
2022-10-03T02:29:52.165Z,42.95
2022-10-03T02:32:58.477Z,44.47
2022-10-03T02:35:52.670Z,42.20
2022-10-03T02:38:39.723Z,41.88
2022-10-03T02:41:34.488Z,40.63
2022-10-03T02:44:38.645Z,41.85
2022-10-03T02:50:48.671Z,41.33
2022-10-03T02:53:56.657Z,43.63
2022-10-03T02:56:57.723Z,42.05
2022-10-03T03:00:08.562Z,43.30
2022-10-03T03:03:16.418Z,46.13
2022-10-03T03:09:23.569Z,52.30
2022-10-03T03:12:28.140Z,46.70
2022-10-03T03:15:55.372Z,43.53
2022-10-03T03:18:34.604Z,43.10
2022-10-03T03:21:30.817Z,40.70
2022-10-03T03:24:33.296Z,42.90
2022-10-03T03:27:37.924Z,41.10
2022-10-03T03:30:12.193Z,40.95
2022-10-03T03:32:58.036Z,44.58
2022-10-03T03:35:38.707Z,48.97
2022-10-03T03:38:18.716Z,44.80
2022-10-03T03:41:16.018Z,42.60
2022-10-03T03:44:06.846Z,43.00
2022-10-03T03:47:01.456Z,43.08
2022-10-03T03:49:43.849Z,40.45
2022-10-03T03:55:51.655Z,40.70
2022-10-03T03:58:33.685Z,43.08
2022-10-03T04:01:43.727Z,42.85
2022-10-03T04:04:40.646Z,42.78
2022-10-03T04:07:34.467Z,42.60
2022-10-03T04:10:18.507Z,42.10
2022-10-03T04:13:32.264Z,44.28
2022-10-03T04:16:45.736Z,41.53
2022-10-03T04:19:24.782Z,42.83
2022-10-03T04:22:21.035Z,41.20
2022-10-03T04:25:26.479Z,40.40
2022-10-03T04:28:54.709Z,40.27
2022-10-03T04:31:42.310Z,41.38
2022-10-03T04:34:27.940Z,38.23
2022-10-03T04:37:09.429Z,38.73
2022-10-03T04:39:46.344Z,41.40
2022-10-03T04:42:27.353Z,41.87
2022-10-03T04:45:12.607Z,41.77
2022-10-03T04:47:48.336Z,42.25
2022-10-03T04:50:40.566Z,40.23
2022-10-03T04:53:51.295Z,40.30
2022-10-03T04:59:47.332Z,40.53
2022-10-03T05:02:30.142Z,38.25
2022-10-03T05:05:21.011Z,39.10
2022-10-03T05:07:55.967Z,38.58
2022-10-03T05:10:41.687Z,36.50
2022-10-03T05:13:17.212Z,35.47
2022-10-03T05:16:07.461Z,33.83
2022-10-03T05:18:46.566Z,36.60
2022-10-03T05:21:17.542Z,36.27
2022-10-03T05:24:02.964Z,34.40
2022-10-03T05:26:46.080Z,32.75
2022-10-03T05:29:37.729Z,32.33
2022-10-03T05:32:17.975Z,31.60
2022-10-03T05:35:05.208Z,31.13
2022-10-03T05:38:01.218Z,27.80
2022-10-03T05:40:31.931Z,25.20
2022-10-03T05:43:29.501Z,20.60
2022-10-03T05:46:04.171Z,17.58
2022-10-03T05:48:43.647Z,16.33
2022-10-03T05:51:39.675Z,14.00
2022-10-03T05:58:05.422Z,10.17
2022-10-03T06:00:52.370Z,8.20
2022-10-03T06:04:05.045Z,8.57
2022-10-03T06:06:58.033Z,8.43
2022-10-03T06:10:05.101Z,8.30
2022-10-03T06:12:40.487Z,8.35
2022-10-03T06:15:33.829Z,7.15
2022-10-03T06:18:13.855Z,7.30
2022-10-03T06:21:06.210Z,7.03
2022-10-03T06:24:13.271Z,7.33
2022-10-03T06:27:04.673Z,7.25
2022-10-03T06:30:06.366Z,6.82
2022-10-03T06:33:26.862Z,6.32
2022-10-03T06:36:16.179Z,6.07
2022-10-03T06:39:32.950Z,6.53
2022-10-03T06:42:31.074Z,6.05
2022-10-03T06:45:41.642Z,5.75
2022-10-03T06:49:04.052Z,5.43
2022-10-03T06:52:29.357Z,5.18
2022-10-03T06:55:34.248Z,5.28
2022-10-03T06:58:43.473Z,5.10
2022-10-03T07:08:41.415Z,4.72
2022-10-03T07:11:44.705Z,4.22
2022-10-03T07:18:13.305Z,5.05
2022-10-03T07:21:33.156Z,5.00
2022-10-03T07:24:41.604Z,5.10
2022-10-03T07:27:25.661Z,4.57
2022-10-03T07:33:38.862Z,4.68
2022-10-03T07:36:49.690Z,4.68
2022-10-03T07:39:45.458Z,4.80
2022-10-03T07:42:47.584Z,4.80
2022-10-03T07:45:39.568Z,4.47
2022-10-03T07:48:43.704Z,5.07
2022-10-03T07:51:36.478Z,5.93
2022-10-03T07:54:35.696Z,6.95
2022-10-03T07:57:29.462Z,6.78
2022-10-03T08:00:24.507Z,7.85
2022-10-03T08:03:30.349Z,6.35
2022-10-03T08:06:23.893Z,6.28
2022-10-03T08:09:30.073Z,6.80
2022-10-03T08:12:35.042Z,6.90
2022-10-03T08:15:12.649Z,7.43
2022-10-03T08:18:29.098Z,7.30
2022-10-03T08:21:16.634Z,7.65
2022-10-03T08:24:16.207Z,8.52
2022-10-03T08:27:31.984Z,8.52
2022-10-03T08:30:25.791Z,7.90
2022-10-03T08:33:32.903Z,9.30
2022-10-03T08:36:43.258Z,10.95
2022-10-03T08:39:14.376Z,10.70
2022-10-03T08:42:15.194Z,10.00
2022-10-03T08:45:08.273Z,8.73
2022-10-03T08:48:11.143Z,10.88
2022-10-03T08:51:13.373Z,9.30
2022-10-03T08:54:08.616Z,9.68
2022-10-03T08:57:11.540Z,8.98
2022-10-03T09:00:20.244Z,9.30
2022-10-03T09:03:34.445Z,8.23
2022-10-03T09:07:05.465Z,9.45
2022-10-03T09:10:03.207Z,9.05
2022-10-03T09:13:29.860Z,8.48
2022-10-03T09:16:34.584Z,8.38
2022-10-03T09:19:36.184Z,7.82
2022-10-03T09:22:20.560Z,7.15
2022-10-03T09:25:48.618Z,7.72
2022-10-03T09:28:48.088Z,7.18
2022-10-03T09:31:29.817Z,8.35
2022-10-03T09:34:20.532Z,7.03
2022-10-03T09:37:25.341Z,7.65
2022-10-03T09:40:32.545Z,8.00
2022-10-03T09:43:36.732Z,6.82
2022-10-03T09:49:49.203Z,6.70
2022-10-03T09:52:47.043Z,6.05
2022-10-03T09:55:34.197Z,7.50
2022-10-03T09:58:29.613Z,7.13
2022-10-03T10:01:24.225Z,7.57
2022-10-03T10:07:50.564Z,7.15
2022-10-03T10:10:55.754Z,7.35
2022-10-03T10:14:13.017Z,6.97
2022-10-03T10:17:37.679Z,8.23
2022-10-03T10:20:31.957Z,7.20
2022-10-03T10:23:21.042Z,7.53
2022-10-03T10:26:15.623Z,6.40
2022-10-03T10:29:19.985Z,7.13
2022-10-03T10:32:37.221Z,8.45
2022-10-03T10:39:10.095Z,6.88
2022-10-03T10:42:20.205Z,6.63
2022-10-03T10:45:36.154Z,5.38
2022-10-03T10:48:41.895Z,6.10
2022-10-03T10:51:43.969Z,5.53
2022-10-03T10:54:49.163Z,6.00
2022-10-03T10:57:51.633Z,5.55
2022-10-03T11:00:54.905Z,7.57
2022-10-03T11:04:02.049Z,8.05
2022-10-03T11:07:13.510Z,9.57
2022-10-03T11:10:19.210Z,7.60
2022-10-03T11:13:35.445Z,8.75
2022-10-03T11:17:04.837Z,7.10
2022-10-03T11:20:38.278Z,9.05
2022-10-03T11:27:16.690Z,9.43
2022-10-03T11:30:17.569Z,9.82
2022-10-03T11:36:44.034Z,7.95
2022-10-03T11:39:19.693Z,7.13
2022-10-03T11:41:54.921Z,7.45
2022-10-03T11:44:29.497Z,9.02
2022-10-03T11:47:26.050Z,8.30
2022-10-03T11:50:16.105Z,8.38
2022-10-03T11:52:59.655Z,8.63
2022-10-03T11:55:35.246Z,8.00
2022-10-03T11:58:25.398Z,7.55
2022-10-03T12:01:04.849Z,7.65
2022-10-03T12:03:41.265Z,8.90
2022-10-03T12:06:33.212Z,9.95
2022-10-03T12:09:16.072Z,7.20
2022-10-03T12:11:53.862Z,8.10
2022-10-03T12:14:29.316Z,7.13
2022-10-03T12:17:06.950Z,7.97
2022-10-03T12:22:52.090Z,6.50
2022-10-03T12:25:27.535Z,5.25
2022-10-03T12:28:07.916Z,5.35
2022-10-03T12:30:50.964Z,5.78
2022-10-03T12:33:47.067Z,6.97
2022-10-03T12:36:19.267Z,7.40
2022-10-03T12:39:02.137Z,7.03
2022-10-03T12:41:55.409Z,6.75
2022-10-03T12:44:45.742Z,8.18
2022-10-03T12:48:01.326Z,7.00
2022-10-03T12:50:43.332Z,6.40
2022-10-03T12:53:32.592Z,6.30
2022-10-03T12:56:22.823Z,6.70
2022-10-03T12:58:58.708Z,7.60
2022-10-03T13:01:37.614Z,6.50
2022-10-03T13:04:19.963Z,7.35
2022-10-03T13:07:05.948Z,6.47
2022-10-03T13:10:06.102Z,6.00
2022-10-03T13:12:43.774Z,6.13
2022-10-03T13:15:42.001Z,6.13
2022-10-03T13:18:24.785Z,5.15
2022-10-03T13:21:43.920Z,5.40
2022-10-03T13:24:12.239Z,6.40
2022-10-03T13:26:57.972Z,5.00
2022-10-03T13:29:30.441Z,5.38
2022-10-03T13:32:17.268Z,4.55
2022-10-03T13:35:35.003Z,6.32
2022-10-03T13:38:47.264Z,5.32
2022-10-03T13:41:52.773Z,6.93
2022-10-03T13:44:28.401Z,5.95
2022-10-03T13:47:06.825Z,8.43
2022-10-03T13:49:44.874Z,8.23
2022-10-03T13:52:23.694Z,7.63
2022-10-03T13:55:10.571Z,8.13
2022-10-03T13:58:33.418Z,10.43
2022-10-03T14:01:21.857Z,8.10
2022-10-03T14:04:07.355Z,7.97
2022-10-03T14:06:41.672Z,7.60
2022-10-03T14:09:36.613Z,6.95
2022-10-03T14:12:15.826Z,8.30
2022-10-03T14:14:55.600Z,7.03
2022-10-03T14:17:31.917Z,7.90
2022-10-03T14:20:21.602Z,9.38
2022-10-03T14:23:23.413Z,7.90
2022-10-03T14:26:01.413Z,9.40
2022-10-03T14:28:39.732Z,10.50
2022-10-03T14:31:35.417Z,9.45
2022-10-03T14:34:15.195Z,8.95
2022-10-03T14:36:50.471Z,9.68
2022-10-03T14:39:46.722Z,8.77
2022-10-03T14:42:58.262Z,9.70
2022-10-03T14:48:22.261Z,8.35
2022-10-03T14:50:55.549Z,8.32
2022-10-03T14:53:29.950Z,8.68
2022-10-03T14:56:03.116Z,8.65
2022-10-03T15:01:29.006Z,8.80
2022-10-03T15:04:02.411Z,7.82
2022-10-03T15:06:56.475Z,8.27
2022-10-03T15:09:33.675Z,8.90
2022-10-03T15:15:02.649Z,9.20
2022-10-03T15:17:35.777Z,8.93
2022-10-03T15:20:07.545Z,7.85
2022-10-03T15:22:39.724Z,8.82
2022-10-03T15:28:05.194Z,9.43
2022-10-03T15:33:31.291Z,8.77
2022-10-03T15:39:03.950Z,11.90
2022-10-03T15:41:38.566Z,11.75
2022-10-03T15:44:15.339Z,11.80
2022-10-03T15:46:49.593Z,12.35
2022-10-03T15:49:22.924Z,11.60
2022-10-03T15:51:52.513Z,12.32
2022-10-03T15:54:23.893Z,12.40
2022-10-03T15:56:57.146Z,15.20
2022-10-03T15:59:32.306Z,19.20
2022-10-03T16:02:31.570Z,23.20
2022-10-03T16:05:01.537Z,22.20
2022-10-03T16:07:39.486Z,22.35
2022-10-03T16:10:20.564Z,22.77
2022-10-03T16:13:04.329Z,20.88
2022-10-03T16:15:53.729Z,17.67
2022-10-03T16:18:51.032Z,17.23
2022-10-03T16:21:47.074Z,16.52
2022-10-03T16:24:26.015Z,15.55
2022-10-03T16:27:00.012Z,14.55
2022-10-03T16:29:32.689Z,14.13
2022-10-03T16:32:07.302Z,14.95
2022-10-03T16:34:39.679Z,15.23
2022-10-03T16:37:29.998Z,16.08
2022-10-03T16:40:02.766Z,14.63
2022-10-03T16:42:44.030Z,15.20
2022-10-03T16:45:35.336Z,15.30
2022-10-03T16:48:28.829Z,14.68
2022-10-03T16:51:00.382Z,14.75
2022-10-03T16:53:29.842Z,14.00
2022-10-03T16:56:05.043Z,15.80
2022-10-03T16:58:54.875Z,16.00
2022-10-03T17:01:47.356Z,15.68
2022-10-03T17:04:39.435Z,16.70
2022-10-03T17:07:17.823Z,16.25
2022-10-03T17:09:48.566Z,15.45
2022-10-03T17:12:39.066Z,15.52
2022-10-03T17:15:10.684Z,16.35
2022-10-03T17:17:50.266Z,16.80
2022-10-03T17:20:23.843Z,16.48
2022-10-03T17:23:01.725Z,16.42
2022-10-03T17:25:42.883Z,16.92
2022-10-03T17:28:17.358Z,17.02
2022-10-03T17:30:51.207Z,17.10
2022-10-03T17:33:24.413Z,17.25
2022-10-03T17:36:03.387Z,16.38
2022-10-03T17:38:49.767Z,18.20
2022-10-03T17:41:23.627Z,18.13
2022-10-03T17:44:06.124Z,17.98
2022-10-03T17:46:41.480Z,18.33
2022-10-03T17:49:22.004Z,18.45
2022-10-03T17:54:41.902Z,19.92
2022-10-03T17:57:16.930Z,19.65
2022-10-03T17:59:51.853Z,20.23
2022-10-03T18:02:25.370Z,20.23
2022-10-03T18:05:01.757Z,20.00
2022-10-03T18:07:31.548Z,23.73
2022-10-03T18:10:02.095Z,21.40
2022-10-03T18:12:36.302Z,21.70
2022-10-03T18:15:39.524Z,20.85
2022-10-03T18:18:34.644Z,23.92
2022-10-03T18:21:07.590Z,23.52
2022-10-03T18:23:55.195Z,23.77
2022-10-03T18:26:29.846Z,25.45
2022-10-03T18:29:27.044Z,22.73
2022-10-03T18:32:00.435Z,25.42
2022-10-03T18:34:35.106Z,23.80
2022-10-03T18:37:18.084Z,23.85
2022-10-03T18:39:50.168Z,23.48
2022-10-03T18:42:27.936Z,22.50
2022-10-03T18:44:58.731Z,21.77
2022-10-03T18:47:32.428Z,20.73
2022-10-03T18:50:10.540Z,19.65
2022-10-03T18:52:46.651Z,19.83
2022-10-03T18:58:18.971Z,17.55
2022-10-03T19:00:55.398Z,17.02
2022-10-03T19:03:30.427Z,16.35
2022-10-03T19:06:04.081Z,17.02
2022-10-03T19:08:38.647Z,16.25
2022-10-03T19:11:18.081Z,16.40
2022-10-03T19:14:00.457Z,17.70
2022-10-03T19:16:46.669Z,15.68
2022-10-03T19:19:25.387Z,18.40
2022-10-03T19:21:55.238Z,17.92
2022-10-03T19:24:58.319Z,17.38
2022-10-03T19:27:41.768Z,17.05
2022-10-03T19:30:18.956Z,19.02
2022-10-03T19:32:55.939Z,18.05
2022-10-03T19:35:26.026Z,18.85
2022-10-03T19:38:00.101Z,19.33
2022-10-03T19:40:51.187Z,17.70
2022-10-03T19:43:45.634Z,18.20
2022-10-03T19:46:41.567Z,19.70
2022-10-03T19:49:30.947Z,18.45
2022-10-03T19:52:18.488Z,19.48
2022-10-03T19:54:51.988Z,19.52
2022-10-03T19:57:27.417Z,20.13
2022-10-03T20:03:16.278Z,19.70
2022-10-03T20:05:52.247Z,20.63
2022-10-03T20:08:34.957Z,20.75
2022-10-03T20:11:20.347Z,20.42
2022-10-03T20:13:51.107Z,20.70
2022-10-03T20:16:22.819Z,21.85
2022-10-03T20:18:58.115Z,21.88
2022-10-03T20:21:29.819Z,20.95
2022-10-03T20:23:59.693Z,20.38
2022-10-03T20:26:54.984Z,22.52
2022-10-03T20:29:35.114Z,21.02
2022-10-03T20:32:06.081Z,20.15
2022-10-03T20:34:42.509Z,20.23
2022-10-03T20:37:36.539Z,20.90
2022-10-03T20:40:18.761Z,20.77
2022-10-03T20:42:49.631Z,21.60
2022-10-03T20:45:23.560Z,21.80
2022-10-03T20:48:02.495Z,24.13
2022-10-03T20:50:36.440Z,24.17
2022-10-03T20:53:12.486Z,22.67
2022-10-03T20:55:48.373Z,24.95
2022-10-03T20:58:30.726Z,24.92
2022-10-03T21:01:03.609Z,24.25
2022-10-03T21:03:39.249Z,24.17
2022-10-03T21:11:55.804Z,25.58
2022-10-03T21:14:46.748Z,26.17
2022-10-03T21:17:17.617Z,26.17
2022-10-03T21:19:52.035Z,26.25
2022-10-03T21:22:42.686Z,26.67
2022-10-03T21:25:33.396Z,26.38
2022-10-03T21:28:03.850Z,25.15
2022-10-03T21:30:56.645Z,25.45
2022-10-03T21:33:32.096Z,26.10
2022-10-03T21:36:10.106Z,24.90
2022-10-03T21:39:12.613Z,25.10
2022-10-03T21:41:49.256Z,26.02
2022-10-03T21:44:32.836Z,25.63
2022-10-03T21:47:11.439Z,26.38
2022-10-03T21:49:50.037Z,25.85
2022-10-03T21:52:32.687Z,24.77
2022-10-03T21:55:17.375Z,26.23
2022-10-03T21:58:01.107Z,25.80
2022-10-03T22:00:31.591Z,26.27
2022-10-03T22:03:07.830Z,24.63
2022-10-03T22:05:44.441Z,27.20
2022-10-03T22:08:23.305Z,29.15
2022-10-03T22:11:05.707Z,28.58
2022-10-03T22:13:38.866Z,27.63
2022-10-03T22:16:15.504Z,28.08
2022-10-03T22:19:04.380Z,27.52
2022-10-03T22:21:42.439Z,27.52
2022-10-03T22:24:19.229Z,26.50
2022-10-03T22:26:53.194Z,26.80
2022-10-03T22:29:36.464Z,27.35
2022-10-03T22:32:11.505Z,26.15
2022-10-03T22:34:53.077Z,27.40
2022-10-03T22:37:22.515Z,27.55
2022-10-03T22:39:51.866Z,25.85
2022-10-03T22:42:22.646Z,26.80
2022-10-03T22:44:55.027Z,27.17
2022-10-03T22:47:26.469Z,29.58
2022-10-03T22:49:59.165Z,29.95
2022-10-03T22:52:32.935Z,29.70
2022-10-03T22:55:03.804Z,28.83
2022-10-03T22:57:36.030Z,26.23
2022-10-03T23:00:09.072Z,23.23
2022-10-03T23:02:43.576Z,24.02
2022-10-03T23:05:17.453Z,25.15
2022-10-03T23:08:02.497Z,24.88
2022-10-03T23:13:39.057Z,24.77
2022-10-03T23:16:18.192Z,23.10
2022-10-03T23:19:09.709Z,20.80
2022-10-03T23:21:46.355Z,19.65
2022-10-03T23:24:25.420Z,19.30
2022-10-03T23:27:23.765Z,19.10
2022-10-03T23:30:51.230Z,19.10
2022-10-03T23:33:51.278Z,19.63
2022-10-03T23:36:24.065Z,19.85
2022-10-03T23:39:03.216Z,19.45
2022-10-03T23:47:42.936Z,18.20
2022-10-03T23:50:37.218Z,17.60
2022-10-03T23:53:06.772Z,18.02
2022-10-03T23:55:39.907Z,19.55
2022-10-03T23:58:23.536Z,17.88
